Time;durP1;ratioP1;P1;durP2;ratioP2;P2;SDS_P1;SDS_P2;PMS_P1;PMS_P2;Temp;Humidity;BMP_temperature;BMP_pressure;BME280_temperature;BME280_humidity;BME280_pressure;Samples;Min_cycle;Max_cycle;Signal;HPM_P1;HPM_P2
2023/12/03 00:01:28;;;;;;;15.45;9.90;;;;;;;;;;5057257;28;20123;-80
2023/12/03 00:03:54;;;;;;;18.05;10.05;;;;;;;;;;5050865;28;20462;-80
2023/12/03 00:06:20;;;;;;;13.50;8.50;;;;;;;;;;5062929;28;20108;-80
2023/12/03 00:08:46;;;;;;;12.73;8.18;;;;;;;;;;5072448;28;20024;-80
2023/12/03 00:11:12;;;;;;;16.90;8.68;;;;;;;;;;5061619;28;20021;-80
2023/12/03 00:13:38;;;;;;;14.38;8.77;;;;;;;;;;5050990;28;20025;-80
2023/12/03 00:16:04;;;;;;;12.73;8.82;;;;;;;;;;5061165;28;20025;-80
2023/12/03 00:18:30;;;;;;;18.88;10.10;;;;;;;;;;5072102;28;20035;-80
2023/12/03 00:20:56;;;;;;;16.25;10.05;;;;;;;;;;5064562;28;20475;-80
2023/12/03 00:23:22;;;;;;;15.88;9.95;;;;;;;;;;5050748;28;20044;-80
2023/12/03 00:25:48;;;;;;;18.92;11.20;;;;;;;;;;5058069;28;20016;-80
2023/12/03 00:28:14;;;;;;;21.15;12.50;;;;;;;;;;5070692;28;20024;-80
2023/12/03 00:30:40;;;;;;;22.00;12.40;;;;;;;;;;5067307;28;20381;-80
2023/12/03 00:33:06;;;;;;;20.25;11.93;;;;;;;;;;5051525;28;20080;-80
2023/12/03 00:35:32;;;;;;;19.73;12.23;;;;;;;;;;5054180;28;20072;-80
2023/12/03 00:37:58;;;;;;;23.02;13.20;;;;;;;;;;5070441;28;20044;-80
2023/12/03 00:40:24;;;;;;;26.50;14.82;;;;;;;;;;5069243;28;20526;-80
2023/12/03 00:42:50;;;;;;;23.17;14.30;;;;;;;;;;5050443;28;20107;-80
2023/12/03 00:45:16;;;;;;;21.92;12.98;;;;;;;;;;5051641;28;20100;-80
2023/12/03 00:47:42;;;;;;;23.75;13.32;;;;;;;;;;5071368;28;20696;-80
2023/12/03 00:50:09;;;;;;;20.65;12.02;;;;;;;;;;5070356;28;20021;-80
2023/12/03 00:52:35;;;;;;;22.10;12.63;;;;;;;;;;5051843;28;20052;-80
2023/12/03 00:55:02;;;;;;;23.48;13.63;;;;;;;;;;5050016;28;20444;-80
2023/12/03 00:57:30;;;;;;;22.90;13.40;;;;;;;;;;5068789;28;20024;-80
2023/12/03 00:59:56;;;;;;;19.38;11.10;;;;;;;;;;5069990;28;20021;-80
2023/12/03 01:02:22;;;;;;;19.02;10.55;;;;;;;;;;5054406;28;20017;-80
2023/12/03 01:04:48;;;;;;;18.55;10.98;;;;;;;;;;5049999;28;20017;-80
2023/12/03 01:07:14;;;;;;;18.55;11.13;;;;;;;;;;5063553;28;20032;-80
2023/12/03 01:09:41;;;;;;;13.77;9.35;;;;;;;;;;5070879;28;20021;-79
2023/12/03 01:12:07;;;;;;;15.88;9.00;;;;;;;;;;5057064;28;20021;-80
2023/12/03 01:14:33;;;;;;;14.75;9.27;;;;;;;;;;5051290;28;20017;-80
2023/12/03 01:16:59;;;;;;;14.30;9.00;;;;;;;;;;5059911;28;20407;-79
2023/12/03 01:19:25;;;;;;;16.48;9.20;;;;;;;;;;5069498;28;20017;-80
2023/12/03 01:21:51;;;;;;;12.50;8.30;;;;;;;;;;5060429;28;20436;-80
2023/12/03 01:24:17;;;;;;;16.20;9.00;;;;;;;;;;5049654;28;20017;-80
2023/12/03 01:26:43;;;;;;;12.48;7.95;;;;;;;;;;5056900;28;20048;-80
2023/12/03 01:29:09;;;;;;;14.82;8.02;;;;;;;;;;5069505;28;20069;-80
2023/12/03 01:31:36;;;;;;;11.90;7.40;;;;;;;;;;5063481;28;20021;-79
2023/12/03 01:34:02;;;;;;;12.93;7.60;;;;;;;;;;5049598;28;20128;-81
2023/12/03 01:36:28;;;;;;;12.18;7.55;;;;;;;;;;5054833;28;20116;-80
2023/12/03 01:38:54;;;;;;;11.95;7.63;;;;;;;;;;5069859;28;20100;-80
2023/12/03 01:41:20;;;;;;;12.02;7.22;;;;;;;;;;5067218;28;20024;-80
2023/12/03 01:43:52;;;;;;;12.90;8.02;;;;;;;;;;5049166;28;20028;-80
2023/12/03 01:46:21;;;;;;;11.40;7.78;;;;;;;;;;5050922;28;20381;-80
2023/12/03 01:48:48;;;;;;;14.95;8.75;;;;;;;;;;5070219;28;20051;-80
2023/12/03 01:51:14;;;;;;;13.43;8.27;;;;;;;;;;5067678;28;20128;-79
2023/12/03 01:53:42;;;;;;;14.52;8.80;;;;;;;;;;5049371;28;20739;-80
2023/12/03 01:56:08;;;;;;;15.05;8.95;;;;;;;;;;5049167;28;20040;-79
2023/12/03 01:58:34;;;;;;;16.27;8.55;;;;;;;;;;5069992;28;20100;-80
2023/12/03 02:01:01;;;;;;;16.02;9.35;;;;;;;;;;5070357;28;20066;-80
2023/12/03 02:03:27;;;;;;;15.00;9.60;;;;;;;;;;5051811;28;20021;-80
2023/12/03 02:06:06;;;;;;;14.00;9.00;;;;;;;;;;5049184;28;20028;-80
2023/12/03 02:08:32;;;;;;;14.57;9.13;;;;;;;;;;5068004;28;20082;-79
2023/12/03 02:11:01;;;;;;;13.35;8.05;;;;;;;;;;5070215;28;20044;-80
2023/12/03 02:13:29;;;;;;;12.80;8.45;;;;;;;;;;5050293;28;20060;-80
2023/12/03 02:15:55;;;;;;;14.52;8.27;;;;;;;;;;5048533;28;20254;-80
2023/12/03 02:18:21;;;;;;;14.05;8.77;;;;;;;;;;5065244;28;20278;-80
2023/12/03 02:20:47;;;;;;;13.23;8.70;;;;;;;;;;5068559;28;20078;-80
2023/12/03 02:23:14;;;;;;;16.40;9.90;;;;;;;;;;5053141;28;20039;-79
2023/12/03 02:25:41;;;;;;;17.48;11.10;;;;;;;;;;5049802;28;20013;-80
2023/12/03 02:28:07;;;;;;;21.67;13.63;;;;;;;;;;5063353;28;20043;-78
2023/12/03 02:30:33;;;;;;;25.45;15.05;;;;;;;;;;5068434;28;20024;-80
2023/12/03 02:32:59;;;;;;;23.25;13.60;;;;;;;;;;5057244;28;20041;-80
2023/12/03 02:35:25;;;;;;;21.50;13.13;;;;;;;;;;5049341;28;20111;-80
2023/12/03 02:37:51;;;;;;;22.67;13.02;;;;;;;;;;5058662;28;20063;-80
2023/12/03 02:40:17;;;;;;;21.27;12.63;;;;;;;;;;5069541;28;20067;-80
2023/12/03 02:42:43;;;;;;;19.95;12.55;;;;;;;;;;5059484;28;20070;-79
2023/12/03 02:45:10;;;;;;;28.08;14.23;;;;;;;;;;5048286;28;20021;-80
2023/12/03 02:47:36;;;;;;;20.05;11.90;;;;;;;;;;5056250;28;20264;-80
2023/12/03 02:50:02;;;;;;;21.33;12.68;;;;;;;;;;5067005;28;20107;-79
2023/12/03 02:52:28;;;;;;;19.77;11.82;;;;;;;;;;5068316;28;20062;-79
2023/12/03 02:54:54;;;;;;;24.50;13.27;;;;;;;;;;5069242;28;20017;-80
2023/12/03 02:57:20;;;;;;;26.20;14.10;;;;;;;;;;5063739;28;20028;-79
2023/12/03 02:59:46;;;;;;;26.58;13.95;;;;;;;;;;5047829;28;20043;-80
2023/12/03 03:02:12;;;;;;;31.13;15.85;;;;;;;;;;5051539;28;20021;-80
2023/12/03 03:04:38;;;;;;;34.55;16.83;;;;;;;;;;5067998;28;20645;-79
2023/12/03 03:07:04;;;;;;;39.10;19.02;;;;;;;;;;5068303;28;20143;-79
2023/12/03 03:09:30;;;;;;;38.55;18.35;;;;;;;;;;5048854;28;20359;-80
2023/12/03 03:11:57;;;;;;;42.70;20.65;;;;;;;;;;5048202;28;20017;-80
2023/12/03 03:14:24;;;;;;;50.35;22.70;;;;;;;;;;5067870;28;20020;-80
2023/12/03 03:16:50;;;;;;;48.85;21.50;;;;;;;;;;5069522;28;20028;-79
2023/12/03 03:19:16;;;;;;;49.00;23.05;;;;;;;;;;5051288;28;20021;-80
2023/12/03 03:21:42;;;;;;;51.47;22.38;;;;;;;;;;5049309;28;20021;-80
2023/12/03 03:24:08;;;;;;;51.42;22.90;;;;;;;;;;5064601;28;20032;-80
2023/12/03 03:26:34;;;;;;;51.97;22.13;;;;;;;;;;5068265;28;20025;-80
2023/12/03 03:29:00;;;;;;;47.78;21.02;;;;;;;;;;5054407;28;20108;-80
2023/12/03 03:31:26;;;;;;;51.00;22.17;;;;;;;;;;5047634;28;20116;-80
2023/12/03 03:33:52;;;;;;;47.60;22.35;;;;;;;;;;5061161;28;20040;-79
2023/12/03 03:36:18;;;;;;;49.83;22.23;;;;;;;;;;5069619;28;20039;-79
2023/12/03 03:38:44;;;;;;;50.78;23.25;;;;;;;;;;5056301;28;20053;-79
2023/12/03 03:41:11;;;;;;;53.60;22.90;;;;;;;;;;5047657;28;20021;-80
2023/12/03 03:43:37;;;;;;;51.65;23.70;;;;;;;;;;5055877;28;20090;-80
2023/12/03 03:46:03;;;;;;;42.17;20.73;;;;;;;;;;5069274;28;20424;-80
2023/12/03 03:48:30;;;;;;;48.17;22.48;;;;;;;;;;5062698;28;20488;-80
2023/12/03 03:50:56;;;;;;;45.65;21.33;;;;;;;;;;5047873;28;20113;-80
2023/12/03 03:53:22;;;;;;;40.95;19.83;;;;;;;;;;5052724;28;20016;-79
2023/12/03 03:55:48;;;;;;;39.53;19.60;;;;;;;;;;5069099;28;20575;-79
2023/12/03 03:58:14;;;;;;;35.63;17.70;;;;;;;;;;5064492;28;20052;-80
2023/12/03 04:00:40;;;;;;;38.90;17.45;;;;;;;;;;5047996;28;20283;-80
2023/12/03 04:03:06;;;;;;;33.00;16.98;;;;;;;;;;5054610;28;20028;-79
2023/12/03 04:05:32;;;;;;;32.58;15.32;;;;;;;;;;5073152;28;20468;-80
2023/12/03 04:07:58;;;;;;;28.98;14.25;;;;;;;;;;5072967;28;20135;-80
2023/12/03 04:10:24;;;;;;;27.33;14.07;;;;;;;;;;5051273;28;20025;-80
2023/12/03 04:12:50;;;;;;;31.08;15.00;;;;;;;;;;5052598;28;20472;-80
2023/12/03 04:15:17;;;;;;;27.15;13.98;;;;;;;;;;5070321;28;20052;-80
2023/12/03 04:17:43;;;;;;;33.92;16.67;;;;;;;;;;5071698;28;20095;-80
2023/12/03 04:20:10;;;;;;;39.63;18.15;;;;;;;;;;5055393;28;20108;-80
2023/12/03 04:22:37;;;;;;;41.92;20.52;;;;;;;;;;5052756;28;20095;-80
2023/12/03 04:25:03;;;;;;;43.10;22.35;;;;;;;;;;5068646;28;20024;-80
2023/12/03 04:27:29;;;;;;;48.63;22.88;;;;;;;;;;5072345;28;20021;-80
2023/12/03 04:29:55;;;;;;;45.20;21.58;;;;;;;;;;5056611;28;20055;-80
2023/12/03 04:32:21;;;;;;;40.78;20.27;;;;;;;;;;5050911;28;20059;-80
2023/12/03 04:34:47;;;;;;;43.38;21.52;;;;;;;;;;5063759;28;20017;-80
2023/12/03 04:37:13;;;;;;;42.85;20.38;;;;;;;;;;5072342;28;20025;-80
2023/12/03 04:39:39;;;;;;;44.22;21.42;;;;;;;;;;5070820;28;20461;-80
2023/12/03 04:42:06;;;;;;;43.42;21.08;;;;;;;;;;5070815;28;20141;-80
2023/12/03 04:44:32;;;;;;;41.63;21.02;;;;;;;;;;5061997;28;20028;-80
2023/12/03 04:46:58;;;;;;;44.72;21.15;;;;;;;;;;5050657;28;20028;-80
2023/12/03 04:49:25;;;;;;;43.60;21.15;;;;;;;;;;5058503;28;20119;-80
2023/12/03 04:51:51;;;;;;;48.58;22.65;;;;;;;;;;5070611;28;20020;-80
2023/12/03 04:54:17;;;;;;;46.47;21.25;;;;;;;;;;5064093;28;20025;-80
2023/12/03 04:56:43;;;;;;;38.75;19.90;;;;;;;;;;5050584;28;20025;-80
2023/12/03 04:59:09;;;;;;;46.80;21.20;;;;;;;;;;5055279;28;20034;-80
2023/12/03 05:01:35;;;;;;;47.38;20.80;;;;;;;;;;5070067;28;20443;-80
2023/12/03 05:04:01;;;;;;;41.83;19.58;;;;;;;;;;5066507;28;20461;-80
2023/12/03 05:06:27;;;;;;;40.25;19.13;;;;;;;;;;5050249;28;20021;-80
2023/12/03 05:08:53;;;;;;;34.55;17.55;;;;;;;;;;5052251;28;20024;-80
2023/12/03 05:11:19;;;;;;;32.15;16.48;;;;;;;;;;5070356;28;20543;-80
2023/12/03 05:13:45;;;;;;;36.42;16.90;;;;;;;;;;5068833;28;20025;-80
2023/12/03 05:16:11;;;;;;;38.53;18.92;;;;;;;;;;5049830;28;20029;-80
2023/12/03 05:18:37;;;;;;;39.53;18.63;;;;;;;;;;5051777;28;20025;-80
2023/12/03 05:21:03;;;;;;;34.10;16.65;;;;;;;;;;5068466;28;20044;-80
2023/12/03 05:23:29;;;;;;;36.95;17.05;;;;;;;;;;5069995;28;20031;-80
2023/12/03 05:25:57;;;;;;;40.38;17.25;;;;;;;;;;5052772;28;20481;-80
2023/12/03 05:28:23;;;;;;;39.00;18.50;;;;;;;;;;5049857;28;20028;-80
2023/12/03 05:30:49;;;;;;;43.60;19.65;;;;;;;;;;5066812;28;20150;-80
2023/12/03 05:33:16;;;;;;;42.75;19.85;;;;;;;;;;5069593;28;20048;-80
2023/12/03 05:35:42;;;;;;;50.40;22.45;;;;;;;;;;5056740;28;20488;-80
2023/12/03 05:38:08;;;;;;;49.33;22.73;;;;;;;;;;5051023;28;20025;-80
2023/12/03 05:40:34;;;;;;;52.20;24.55;;;;;;;;;;5062406;28;20013;-80
2023/12/03 05:43:00;;;;;;;60.15;27.63;;;;;;;;;;5069449;28;20372;-80
2023/12/03 05:45:27;;;;;;;62.25;26.83;;;;;;;;;;5058406;28;20039;-80
2023/12/03 05:47:53;;;;;;;63.33;28.05;;;;;;;;;;5050779;28;20040;-80
2023/12/03 05:50:20;;;;;;;56.67;26.52;;;;;;;;;;5060607;28;20039;-80
2023/12/03 05:52:46;;;;;;;55.42;23.27;;;;;;;;;;5071026;28;20071;-80
2023/12/03 05:55:12;;;;;;;50.38;23.10;;;;;;;;;;5062056;28;20473;-80
2023/12/03 05:57:38;;;;;;;43.47;20.10;;;;;;;;;;5050558;28;20024;-80
2023/12/03 06:00:04;;;;;;;39.80;18.83;;;;;;;;;;5057750;28;20024;-80
2023/12/03 06:02:30;;;;;;;33.90;17.00;;;;;;;;;;5069066;28;20023;-80
2023/12/03 06:04:56;;;;;;;34.38;16.15;;;;;;;;;;5064519;28;20021;-80
2023/12/03 06:07:22;;;;;;;37.40;16.88;;;;;;;;;;5049137;28;20021;-80
2023/12/03 06:09:48;;;;;;;37.83;16.92;;;;;;;;;;5053488;28;20031;-80
2023/12/03 06:12:14;;;;;;;34.00;15.52;;;;;;;;;;5069157;28;20127;-80
2023/12/03 06:14:40;;;;;;;33.83;15.13;;;;;;;;;;5066364;28;20078;-80
2023/12/03 06:17:06;;;;;;;37.35;15.80;;;;;;;;;;5048922;28;20021;-80
2023/12/03 06:19:32;;;;;;;33.42;15.63;;;;;;;;;;5050793;28;20044;-80
2023/12/03 06:21:58;;;;;;;39.22;17.38;;;;;;;;;;5068901;28;20016;-80
2023/12/03 06:24:25;;;;;;;43.35;18.40;;;;;;;;;;5068947;28;20070;-81
2023/12/03 06:26:51;;;;;;;40.70;18.23;;;;;;;;;;5049321;28;20115;-80
2023/12/03 06:29:17;;;;;;;43.72;18.85;;;;;;;;;;5048746;28;20048;-79
2023/12/03 06:31:43;;;;;;;51.28;20.80;;;;;;;;;;5066687;28;20048;-80
2023/12/03 06:34:09;;;;;;;54.78;21.98;;;;;;;;;;5068405;28;20043;-79
2023/12/03 06:36:35;;;;;;;59.00;23.88;;;;;;;;;;5053345;28;20485;-79
2023/12/03 06:39:02;;;;;;;59.03;24.40;;;;;;;;;;5050356;28;20054;-79
2023/12/03 06:41:28;;;;;;;61.42;25.00;;;;;;;;;;5063646;28;20062;-78
2023/12/03 06:43:54;;;;;;;66.95;25.38;;;;;;;;;;5070246;28;20048;-79
2023/12/03 06:46:20;;;;;;;66.30;24.75;;;;;;;;;;5057320;28;20427;-79
2023/12/03 06:48:46;;;;;;;85.47;27.27;;;;;;;;;;5049982;28;20024;-79
2023/12/03 06:51:12;;;;;;;93.57;29.73;;;;;;;;;;5061322;28;20225;-79
2023/12/03 06:53:38;;;;;;;94.93;29.25;;;;;;;;;;5069826;28;20095;-79
2023/12/03 06:56:04;;;;;;;115.35;33.85;;;;;;;;;;5059248;28;20120;-79
2023/12/03 06:58:31;;;;;;;124.32;35.15;;;;;;;;;;5048508;28;20441;-79
2023/12/03 07:00:57;;;;;;;137.50;37.45;;;;;;;;;;5056608;28;20507;-79
2023/12/03 07:03:23;;;;;;;166.55;40.67;;;;;;;;;;5068049;28;20052;-79
2023/12/03 07:05:49;;;;;;;167.25;40.10;;;;;;;;;;5061901;28;20025;-79
2023/12/03 07:08:15;;;;;;;180.15;42.70;;;;;;;;;;5048328;28;20568;-79
2023/12/03 07:10:41;;;;;;;219.38;45.97;;;;;;;;;;5054294;28;20040;-79
2023/12/03 07:13:07;;;;;;;213.88;44.95;;;;;;;;;;5069497;28;20042;-79
2023/12/03 07:15:33;;;;;;;242.52;47.15;;;;;;;;;;5064997;28;20074;-80
2023/12/03 07:17:59;;;;;;;268.27;48.92;;;;;;;;;;5048182;28;20017;-80
2023/12/03 07:20:25;;;;;;;271.17;48.40;;;;;;;;;;5051420;28;20331;-79
2023/12/03 07:22:51;;;;;;;249.13;45.63;;;;;;;;;;5068075;28;20016;-79
2023/12/03 07:25:17;;;;;;;316.02;50.05;;;;;;;;;;5068094;28;20017;-80
2023/12/03 07:27:43;;;;;;;251.98;45.25;;;;;;;;;;5048257;28;20345;-80
2023/12/03 07:30:10;;;;;;;284.30;49.83;;;;;;;;;;5048360;28;20369;-80
2023/12/03 07:32:36;;;;;;;291.35;46.40;;;;;;;;;;5067690;28;20074;-80
2023/12/03 07:35:02;;;;;;;292.63;48.75;;;;;;;;;;5069056;28;20047;-80
2023/12/03 07:37:29;;;;;;;295.17;48.72;;;;;;;;;;5054190;28;20028;-79
2023/12/03 07:39:55;;;;;;;226.98;43.78;;;;;;;;;;5052180;28;20024;-80
2023/12/03 07:42:21;;;;;;;309.52;47.10;;;;;;;;;;5069829;28;20025;-80
2023/12/03 07:44:47;;;;;;;259.70;45.50;;;;;;;;;;5071853;28;20041;-80
2023/12/03 07:47:13;;;;;;;277.23;46.28;;;;;;;;;;5056382;28;20392;-80
2023/12/03 07:49:40;;;;;;;301.40;50.00;;;;;;;;;;5052790;28;20305;-81
2023/12/03 07:52:06;;;;;;;275.48;49.38;;;;;;;;;;5064010;28;20031;-80
2023/12/03 07:54:32;;;;;;;314.65;53.03;;;;;;;;;;5071647;28;20019;-80
2023/12/03 07:56:58;;;;;;;293.38;51.35;;;;;;;;;;5062370;28;20025;-80
2023/12/03 07:59:24;;;;;;;304.50;54.08;;;;;;;;;;5052047;28;20019;-80
2023/12/03 08:01:50;;;;;;;390.08;57.97;;;;;;;;;;5060884;28;20105;-81
2023/12/03 08:04:16;;;;;;;284.73;53.45;;;;;;;;;;5071738;28;20016;-80
2023/12/03 08:06:42;;;;;;;327.25;57.30;;;;;;;;;;5064062;28;20021;-80
2023/12/03 08:09:08;;;;;;;305.95;56.88;;;;;;;;;;5052774;28;20017;-80
2023/12/03 08:11:35;;;;;;;279.55;53.63;;;;;;;;;;5057107;28;20108;-80
2023/12/03 08:14:02;;;;;;;272.00;54.30;;;;;;;;;;5072020;28;20200;-80
2023/12/03 08:16:28;;;;;;;266.98;57.33;;;;;;;;;;5067180;28;20476;-80
2023/12/03 08:18:54;;;;;;;235.48;58.00;;;;;;;;;;5051647;28;20269;-81
2023/12/03 08:21:20;;;;;;;256.48;62.50;;;;;;;;;;5055379;28;20013;-80
2023/12/03 08:23:47;;;;;;;228.35;64.30;;;;;;;;;;5071248;28;20011;-80
2023/12/03 08:26:13;;;;;;;217.43;66.07;;;;;;;;;;5071876;28;20028;-80
2023/12/03 08:28:39;;;;;;;245.48;70.22;;;;;;;;;;5051574;28;20017;-80
2023/12/03 08:31:06;;;;;;;230.32;71.28;;;;;;;;;;5052644;28;20024;-80
2023/12/03 08:33:32;;;;;;;199.98;65.75;;;;;;;;;;5070174;28;20046;-80
2023/12/03 08:35:58;;;;;;;207.13;68.80;;;;;;;;;;5070972;28;20035;-80
2023/12/03 08:38:24;;;;;;;228.93;71.20;;;;;;;;;;5053257;28;20100;-80
2023/12/03 08:40:50;;;;;;;216.75;68.95;;;;;;;;;;5051080;28;20419;-80
2023/12/03 08:43:16;;;;;;;225.55;68.75;;;;;;;;;;5067041;28;20059;-80
2023/12/03 08:45:43;;;;;;;216.35;68.45;;;;;;;;;;5071117;28;20449;-80
2023/12/03 08:48:09;;;;;;;201.32;66.25;;;;;;;;;;5056331;28;20100;-81
2023/12/03 08:50:35;;;;;;;210.30;67.70;;;;;;;;;;5050831;28;20048;-80
2023/12/03 08:53:01;;;;;;;214.35;66.20;;;;;;;;;;5063464;28;20017;-81
2023/12/03 08:55:27;;;;;;;182.95;63.25;;;;;;;;;;5070682;28;20224;-81
2023/12/03 08:57:53;;;;;;;201.02;64.90;;;;;;;;;;5059289;28;20017;-81
2023/12/03 09:00:19;;;;;;;193.75;63.45;;;;;;;;;;5050825;28;20013;-81
2023/12/03 09:02:45;;;;;;;179.48;61.83;;;;;;;;;;5060469;28;20012;-80
2023/12/03 09:05:12;;;;;;;177.38;62.15;;;;;;;;;;5070550;28;20019;-81
2023/12/03 09:07:38;;;;;;;164.52;58.97;;;;;;;;;;5063703;28;20028;-81
2023/12/03 09:10:04;;;;;;;164.10;58.28;;;;;;;;;;5053883;28;20231;-80
2023/12/03 09:12:30;;;;;;;149.80;55.22;;;;;;;;;;5060353;28;20048;-81
2023/12/03 09:14:56;;;;;;;165.35;56.47;;;;;;;;;;5070748;28;20348;-81
2023/12/03 09:17:22;;;;;;;157.38;54.25;;;;;;;;;;5066456;28;20082;-81
2023/12/03 09:19:49;;;;;;;150.15;50.60;;;;;;;;;;5050668;28;20491;-81
2023/12/03 09:22:15;;;;;;;147.38;50.80;;;;;;;;;;5054108;28;20472;-81
2023/12/03 09:24:41;;;;;;;150.65;50.75;;;;;;;;;;5070266;28;20044;-81
2023/12/03 09:27:07;;;;;;;151.27;49.65;;;;;;;;;;5067432;28;20103;-81
2023/12/03 09:29:33;;;;;;;138.20;49.55;;;;;;;;;;5050053;28;20469;-80
2023/12/03 09:31:59;;;;;;;153.18;50.60;;;;;;;;;;5050460;28;20044;-80
2023/12/03 09:34:25;;;;;;;142.48;48.28;;;;;;;;;;5071362;28;20028;-81
2023/12/03 09:36:51;;;;;;;158.13;49.90;;;;;;;;;;5069902;28;20396;-80
2023/12/03 09:39:18;;;;;;;144.05;49.67;;;;;;;;;;5050416;28;20045;-80
2023/12/03 09:41:50;;;;;;;144.93;49.67;;;;;;;;;;5049665;28;20024;-80
2023/12/03 09:44:26;;;;;;;148.65;51.00;;;;;;;;;;5068350;28;20372;-80
2023/12/03 09:46:53;;;;;;;139.65;51.03;;;;;;;;;;5069807;28;20016;-80
2023/12/03 09:49:23;;;;;;;145.55;50.92;;;;;;;;;;5050943;28;20029;-80
2023/12/03 09:51:50;;;;;;;132.95;49.70;;;;;;;;;;5049505;28;20025;-80
2023/12/03 09:54:16;;;;;;;131.90;49.08;;;;;;;;;;5067095;28;20023;-80
2023/12/03 09:56:44;;;;;;;136.63;49.00;;;;;;;;;;5070669;28;20496;-80
2023/12/03 09:59:10;;;;;;;132.93;48.78;;;;;;;;;;5052458;28;20063;-80
2023/12/03 10:01:40;;;;;;;130.85;48.40;;;;;;;;;;5049432;28;20017;-80
2023/12/03 10:04:06;;;;;;;123.82;48.10;;;;;;;;;;5064906;28;20017;-80
2023/12/03 10:06:34;;;;;;;123.50;46.88;;;;;;;;;;5069306;28;20021;-79
2023/12/03 10:09:01;;;;;;;113.90;46.60;;;;;;;;;;5054945;28;20100;-80
2023/12/03 10:11:28;;;;;;;113.25;46.03;;;;;;;;;;5050759;28;20100;-80
2023/12/03 10:13:56;;;;;;;113.13;45.67;;;;;;;;;;5061720;28;20099;-80
2023/12/03 10:16:23;;;;;;;109.88;46.38;;;;;;;;;;5069377;28;20035;-80
2023/12/03 10:18:52;;;;;;;126.22;47.95;;;;;;;;;;5057496;28;20074;-80
2023/12/03 10:21:18;;;;;;;124.88;48.47;;;;;;;;;;5050326;28;20021;-78
2023/12/03 10:23:56;;;;;;;124.47;47.83;;;;;;;;;;5059712;28;20056;-80
2023/12/03 10:26:22;;;;;;;128.10;48.63;;;;;;;;;;5070140;28;20023;-80
2023/12/03 10:28:48;;;;;;;140.25;50.13;;;;;;;;;;5058212;28;20046;-80
2023/12/03 10:31:15;;;;;;;129.18;48.58;;;;;;;;;;5049195;28;20388;-81
2023/12/03 10:33:45;;;;;;;140.52;49.20;;;;;;;;;;5058012;28;20036;-80
2023/12/03 10:36:11;;;;;;;142.60;50.27;;;;;;;;;;5069067;28;20032;-80
2023/12/03 10:38:39;;;;;;;137.38;47.40;;;;;;;;;;5061596;28;20266;-81
2023/12/03 10:41:09;;;;;;;137.05;46.83;;;;;;;;;;5048676;28;20492;-79
2023/12/03 10:43:35;;;;;;;153.70;49.30;;;;;;;;;;5056463;28;20120;-80
2023/12/03 10:46:04;;;;;;;147.57;48.47;;;;;;;;;;5068894;28;20020;-80
2023/12/03 10:48:31;;;;;;;150.77;49.28;;;;;;;;;;5063316;28;20020;-80
2023/12/03 10:51:03;;;;;;;139.18;46.28;;;;;;;;;;5049966;28;20017;-80
2023/12/03 10:53:31;;;;;;;147.35;45.90;;;;;;;;;;5055810;28;20028;-80
2023/12/03 10:55:57;;;;;;;137.50;41.72;;;;;;;;;;5068707;28;20033;-80
2023/12/03 10:58:24;;;;;;;148.10;46.45;;;;;;;;;;5065322;28;20009;-80
2023/12/03 11:00:56;;;;;;;152.02;43.53;;;;;;;;;;5048731;28;20009;-80
2023/12/03 11:03:31;;;;;;;144.60;42.72;;;;;;;;;;5049841;28;20101;-79
2023/12/03 11:05:58;;;;;;;150.63;43.05;;;;;;;;;;5048415;28;20071;-80
2023/12/03 11:08:25;;;;;;;155.77;45.08;;;;;;;;;;5051912;28;20095;-80
2023/12/03 11:10:52;;;;;;;151.77;46.00;;;;;;;;;;5067472;28;20020;-80
2023/12/03 11:13:19;;;;;;;144.57;46.33;;;;;;;;;;5065910;28;20066;-79
2023/12/03 11:15:45;;;;;;;161.73;48.88;;;;;;;;;;5048430;28;20090;-80
2023/12/03 11:18:12;;;;;;;162.18;47.30;;;;;;;;;;5050941;28;20040;-79
2023/12/03 11:20:39;;;;;;;161.88;49.85;;;;;;;;;;5068455;28;20182;-80
2023/12/03 11:23:08;;;;;;;145.02;44.75;;;;;;;;;;5068197;28;20048;-80
2023/12/03 11:25:35;;;;;;;127.53;41.13;;;;;;;;;;5049708;28;20088;-80
2023/12/03 11:28:02;;;;;;;128.05;40.75;;;;;;;;;;5049648;28;20056;-79
2023/12/03 11:30:38;;;;;;;134.27;42.97;;;;;;;;;;5068495;28;20062;-79
2023/12/03 11:33:14;;;;;;;124.03;40.08;;;;;;;;;;5069356;28;20071;-80
2023/12/03 11:35:42;;;;;;;116.10;40.08;;;;;;;;;;5048914;28;20477;-80
2023/12/03 11:38:09;;;;;;;112.50;40.33;;;;;;;;;;5049431;28;20010;-79
2023/12/03 11:40:35;;;;;;;113.50;39.20;;;;;;;;;;5066008;28;20357;-79
2023/12/03 11:43:01;;;;;;;124.45;41.08;;;;;;;;;;5055238;28;20056;-79
2023/12/03 11:45:29;;;;;;;107.55;36.67;;;;;;;;;;5064190;28;20100;-79
2023/12/03 11:48:11;;;;;;;114.53;39.20;;;;;;;;;;5064771;28;20013;-80
2023/12/03 11:50:40;;;;;;;115.53;39.45;;;;;;;;;;5042172;28;20491;-79
2023/12/03 11:53:07;;;;;;;106.00;38.55;;;;;;;;;;5043974;28;20074;-79
2023/12/03 11:55:34;;;;;;;99.20;35.28;;;;;;;;;;5051976;28;20017;-79
2023/12/03 11:58:04;;;;;;;111.40;37.45;;;;;;;;;;5058143;28;20017;-79
2023/12/03 12:00:31;;;;;;;107.83;37.27;;;;;;;;;;5048494;28;20021;-79
2023/12/03 12:02:57;;;;;;;106.47;35.08;;;;;;;;;;5047925;28;20542;-80
2023/12/03 12:05:23;;;;;;;113.47;37.72;;;;;;;;;;5053612;28;20468;-79
2023/12/03 12:08:15;;;;;;;103.10;36.50;;;;;;;;;;5054646;28;20033;-79
2023/12/03 12:10:42;;;;;;;108.25;35.53;;;;;;;;;;5049225;28;20028;-79
2023/12/03 12:13:08;;;;;;;99.10;33.58;;;;;;;;;;5053825;28;20025;-80
2023/12/03 12:15:36;;;;;;;94.28;34.25;;;;;;;;;;5056040;28;20045;-80
2023/12/03 12:18:03;;;;;;;86.97;34.05;;;;;;;;;;5056592;28;20017;-79
2023/12/03 12:20:30;;;;;;;96.85;35.78;;;;;;;;;;5061944;28;20012;-80
2023/12/03 12:22:56;;;;;;;91.05;33.92;;;;;;;;;;5057763;28;20385;-79
2023/12/03 12:25:24;;;;;;;89.47;32.00;;;;;;;;;;5062426;28;20520;-79
2023/12/03 12:27:50;;;;;;;88.10;32.95;;;;;;;;;;5057937;28;20025;-80
2023/12/03 12:30:17;;;;;;;83.30;32.53;;;;;;;;;;5063899;28;20119;-80
2023/12/03 12:32:43;;;;;;;75.43;28.42;;;;;;;;;;5059367;28;20492;-79
2023/12/03 12:35:10;;;;;;;75.28;28.83;;;;;;;;;;5060514;28;20017;-79
2023/12/03 12:37:36;;;;;;;67.75;26.83;;;;;;;;;;5059444;28;20024;-79
2023/12/03 12:40:09;;;;;;;65.00;26.80;;;;;;;;;;5069006;28;20016;-79
2023/12/03 12:42:35;;;;;;;66.78;25.77;;;;;;;;;;5050495;28;20017;-79
2023/12/03 12:45:03;;;;;;;63.60;24.63;;;;;;;;;;5059056;28;20016;-79
2023/12/03 12:47:39;;;;;;;61.70;25.35;;;;;;;;;;5071471;28;20100;-80
2023/12/03 12:50:06;;;;;;;70.45;25.50;;;;;;;;;;5069076;28;20017;-79
2023/12/03 12:52:35;;;;;;;67.93;25.23;;;;;;;;;;5069883;28;20104;-80
2023/12/03 12:55:01;;;;;;;61.28;24.88;;;;;;;;;;5070569;28;20054;-79
2023/12/03 12:57:27;;;;;;;62.08;24.48;;;;;;;;;;5061188;28;20074;-80
2023/12/03 12:59:53;;;;;;;59.60;22.77;;;;;;;;;;5054710;28;20035;-79
2023/12/03 13:02:26;;;;;;;63.78;24.55;;;;;;;;;;5061735;28;20492;-79
2023/12/03 13:04:52;;;;;;;66.32;24.38;;;;;;;;;;5069978;28;20469;-79
2023/12/03 13:07:18;;;;;;;62.72;24.30;;;;;;;;;;5053238;28;20535;-78
2023/12/03 13:09:44;;;;;;;59.70;23.67;;;;;;;;;;5070165;28;20571;-79
2023/12/03 13:12:11;;;;;;;62.28;23.35;;;;;;;;;;5069792;28;20039;-79
2023/12/03 13:14:38;;;;;;;63.13;22.73;;;;;;;;;;5064826;28;20017;-78
2023/12/03 13:17:04;;;;;;;68.05;23.70;;;;;;;;;;5060759;28;20107;-78
2023/12/03 13:19:30;;;;;;;58.80;21.25;;;;;;;;;;5060702;28;20658;-79
2023/12/03 13:21:57;;;;;;;54.40;21.85;;;;;;;;;;5060677;28;20476;-79
2023/12/03 13:24:23;;;;;;;65.05;23.05;;;;;;;;;;5062940;28;20333;-78
2023/12/03 13:26:49;;;;;;;50.55;21.65;;;;;;;;;;5059992;28;20095;-78
2023/12/03 13:29:15;;;;;;;55.67;21.75;;;;;;;;;;5063655;28;20039;-78
2023/12/03 13:31:41;;;;;;;63.63;23.35;;;;;;;;;;5058416;28;20036;-79
2023/12/03 13:34:09;;;;;;;61.55;22.77;;;;;;;;;;5060705;28;20028;-82
2023/12/03 13:36:35;;;;;;;57.15;23.02;;;;;;;;;;5057292;28;20644;-81
2023/12/03 13:39:03;;;;;;;62.53;23.05;;;;;;;;;;5049342;28;20427;-81
2023/12/03 13:41:30;;;;;;;64.45;23.67;;;;;;;;;;5059969;28;20028;-81
2023/12/03 13:43:56;;;;;;;61.72;22.67;;;;;;;;;;5046593;28;20483;-76
2023/12/03 13:46:22;;;;;;;64.10;24.08;;;;;;;;;;5061785;28;20167;-77
2023/12/03 13:48:48;;;;;;;66.65;25.08;;;;;;;;;;5050129;28;20119;-77
2023/12/03 13:51:14;;;;;;;66.85;24.42;;;;;;;;;;5061431;28;20484;-77
2023/12/03 13:53:40;;;;;;;61.28;24.13;;;;;;;;;;5062247;28;20039;-76
2023/12/03 13:56:09;;;;;;;59.88;22.77;;;;;;;;;;5057613;28;20025;-76
2023/12/03 13:58:35;;;;;;;56.38;22.40;;;;;;;;;;5063372;28;20020;-77
2023/12/03 14:01:01;;;;;;;68.78;24.10;;;;;;;;;;5059939;28;20021;-77
2023/12/03 14:03:27;;;;;;;67.88;24.50;;;;;;;;;;5052518;28;20024;-76
2023/12/03 14:05:53;;;;;;;51.85;22.17;;;;;;;;;;5070684;28;20025;-76
2023/12/03 14:08:19;;;;;;;65.70;23.60;;;;;;;;;;5070131;28;20016;-76
2023/12/03 14:10:45;;;;;;;63.92;22.70;;;;;;;;;;5068929;28;20362;-77